Time;durP1;ratioP1;P1;durP2;ratioP2;P2;SDS_P1;SDS_P2;PMS_P1;PMS_P2;Temp;Humidity;BMP_temperature;BMP_pressure;BME280_temperature;BME280_humidity;BME280_pressure;Samples;Min_cycle;Max_cycle;Signal;HPM_P1;HPM_P2
2021/06/30 00:02:22;;;;;;;19.98;8.98;;;;;;;14.56;100.00;99779.64;1601026;87;21450;-81
2021/06/30 00:04:49;;;;;;;13.30;9.03;;;;;;;14.52;100.00;99779.44;1613440;88;21106;-81
2021/06/30 00:07:15;;;;;;;12.25;8.50;;;;;;;14.51;100.00;99779.03;1619133;88;21162;-81
2021/06/30 00:09:43;;;;;;;15.03;7.92;;;;;;;14.50;100.00;99786.62;1610674;87;21603;-84
2021/06/30 00:12:10;;;;;;;15.18;6.70;;;;;;;14.50;100.00;99781.32;1608392;88;21541;-82
2021/06/30 00:14:38;;;;;;;12.25;6.90;;;;;;;14.49;100.00;99780.44;1613025;88;21113;-82
2021/06/30 00:17:08;;;;;;;13.25;8.93;;;;;;;14.51;100.00;99790.95;1613699;88;21105;-84
2021/06/30 00:19:35;;;;;;;8.10;5.30;;;;;;;14.51;100.00;99791.80;1612712;88;21666;-83
2021/06/30 00:22:03;;;;;;;11.88;6.72;;;;;;;14.50;100.00;99790.59;1610809;88;21149;-83
2021/06/30 00:24:30;;;;;;;6.67;5.15;;;;;;;14.51;100.00;99790.95;1614760;88;21116;-84
2021/06/30 00:26:57;;;;;;;16.77;7.97;;;;;;;14.50;100.00;99795.89;1610904;88;21111;-82
2021/06/30 00:29:23;;;;;;;9.90;7.85;;;;;;;14.48;100.00;99796.81;1608305;88;21622;-83
2021/06/30 00:31:52;;;;;;;13.98;7.67;;;;;;;14.49;100.00;99795.02;1611700;88;21084;-82
2021/06/30 00:34:19;;;;;;;13.18;7.28;;;;;;;14.47;100.00;99786.33;1613456;88;21074;-78
2021/06/30 00:36:47;;;;;;;10.63;7.58;;;;;;;14.45;100.00;99787.73;1607926;88;21077;-79
2021/06/30 00:39:20;;;;;;;14.60;8.13;;;;;;;14.45;100.00;99781.59;1610966;88;21100;-80
2021/06/30 00:41:44;;;;;;;16.27;9.35;;;;;;;14.42;100.00;99784.39;1610701;87;21572;-79
2021/06/30 00:44:13;;;;;;;16.52;9.55;;;;;;;14.39;100.00;99783.27;1613147;87;21171;-77
2021/06/30 00:46:41;;;;;;;17.95;9.93;;;;;;;14.32;100.00;99778.79;1609398;88;21761;-79
2021/06/30 00:49:08;;;;;;;18.12;9.38;;;;;;;14.33;100.00;99780.48;1608435;88;21249;-78
2021/06/30 00:51:37;;;;;;;12.13;9.28;;;;;;;14.28;100.00;99779.90;1608212;88;21128;-79
2021/06/30 00:54:05;;;;;;;10.95;6.90;;;;;;;14.26;100.00;99777.81;1609572;88;21176;-79
2021/06/30 00:56:32;;;;;;;11.88;7.83;;;;;;;14.24;100.00;99791.61;1609706;88;21633;-79
2021/06/30 00:59:00;;;;;;;20.40;11.30;;;;;;;14.22;100.00;99787.74;1611436;87;21600;-81
2021/06/30 01:01:28;;;;;;;19.23;11.15;;;;;;;14.20;100.00;99789.63;1614511;87;21775;-79
2021/06/30 01:03:55;;;;;;;9.83;7.70;;;;;;;14.16;100.00;99785.44;1630473;87;21201;-80
2021/06/30 01:06:22;;;;;;;14.38;8.98;;;;;;;14.14;100.00;99779.84;1620435;87;21587;-82
2021/06/30 01:08:51;;;;;;;18.10;9.98;;;;;;;14.13;100.00;99778.16;1618674;87;21577;-82
2021/06/30 01:11:18;;;;;;;14.90;10.43;;;;;;;14.11;100.00;99781.36;1619604;87;21117;-82
2021/06/30 01:13:45;;;;;;;17.00;10.43;;;;;;;14.08;100.00;99781.07;1631199;87;21043;-84
2021/06/30 01:16:15;;;;;;;13.50;10.40;;;;;;;14.04;100.00;99772.43;1622573;87;21780;-84
2021/06/30 01:18:42;;;;;;;15.55;11.40;;;;;;;14.02;100.00;99782.73;1624789;87;21065;-84
2021/06/30 01:21:10;;;;;;;16.00;10.78;;;;;;;14.00;100.00;99777.51;1619609;86;21089;-85
2021/06/30 01:23:38;;;;;;;19.17;10.72;;;;;;;13.99;100.00;99775.82;1636278;85;21255;-84
2021/06/30 01:26:05;;;;;;;15.65;11.90;;;;;;;13.98;100.00;99776.73;1637294;86;21644;-85
2021/06/30 01:28:32;;;;;;;16.65;11.95;;;;;;;13.97;100.00;99780.34;1634516;86;21082;-82
2021/06/30 01:30:59;;;;;;;17.27;11.63;;;;;;;13.95;100.00;99779.58;1630147;86;21096;-84
2021/06/30 01:33:27;;;;;;;18.37;11.88;;;;;;;13.93;100.00;99785.42;1637655;86;21089;-84
2021/06/30 01:35:54;;;;;;;18.20;11.18;;;;;;;13.88;100.00;99786.16;1630621;86;21124;-81
2021/06/30 01:38:22;;;;;;;16.87;12.75;;;;;;;13.88;100.00;99794.58;1634328;86;21036;-82
2021/06/30 01:40:51;;;;;;;16.15;11.80;;;;;;;13.87;100.00;99800.31;1635744;85;21080;-82
2021/06/30 01:43:18;;;;;;;12.15;9.18;;;;;;;13.84;100.00;99799.17;1637997;87;21073;-83
2021/06/30 01:45:50;;;;;;;16.00;12.47;;;;;;;13.83;100.00;99797.48;1635535;87;21158;-84
2021/06/30 01:48:18;;;;;;;17.07;12.78;;;;;;;13.79;100.00;99800.75;1619251;87;21149;-83
2021/06/30 01:50:50;;;;;;;15.60;12.95;;;;;;;13.76;100.00;99802.73;1643447;86;21110;-83
2021/06/30 01:53:18;;;;;;;22.20;13.93;;;;;;;13.74;100.00;99805.45;1648120;86;21141;-81
2021/06/30 01:55:45;;;;;;;21.37;14.28;;;;;;;13.73;100.00;99802.41;1660279;86;21078;-83
2021/06/30 01:58:20;;;;;;;20.10;14.00;;;;;;;13.71;100.00;99800.78;1651653;86;21054;-83
2021/06/30 02:00:52;;;;;;;18.40;13.75;;;;;;;13.71;100.00;99804.75;1660868;84;21210;-82
2021/06/30 02:03:19;;;;;;;20.23;13.62;;;;;;;13.69;100.00;99801.33;1669910;84;21127;-90
2021/06/30 02:05:46;;;;;;;19.37;13.78;;;;;;;13.68;100.00;99806.25;1672516;84;21064;-82
2021/06/30 02:08:13;;;;;;;17.15;13.40;;;;;;;13.67;100.00;99804.56;1671871;84;21058;-85
2021/06/30 02:10:42;;;;;;;15.60;12.13;;;;;;;13.67;100.00;99801.92;1671043;84;21036;-86
2021/06/30 02:13:09;;;;;;;20.72;11.90;;;;;;;13.67;100.00;99805.88;1670712;85;21487;-87
2021/06/30 02:15:37;;;;;;;21.85;13.00;;;;;;;13.68;100.00;99802.29;1670222;84;21194;-86
2021/06/30 02:18:06;;;;;;;19.73;11.78;;;;;;;13.66;100.00;99804.16;1671022;85;21033;-87
2021/06/30 02:20:34;;;;;;;15.40;10.50;;;;;;;13.68;100.00;99815.52;1669487;85;21073;-85
2021/06/30 02:23:01;;;;;;;16.67;10.93;;;;;;;13.70;100.00;99813.64;1649940;85;21603;-84
2021/06/30 02:25:29;;;;;;;10.48;9.38;;;;;;;13.71;100.00;99812.69;1635480;85;21091;-84
2021/06/30 02:27:56;;;;;;;16.80;10.58;;;;;;;13.73;100.00;99818.76;1612056;89;21473;-87
2021/06/30 02:30:29;;;;;;;20.27;11.57;;;;;;;13.77;100.00;99815.02;1594301;88;21135;-86
2021/06/30 02:32:59;;;;;;;17.90;12.25;;;;;;;13.79;100.00;99821.08;1596338;88;21626;-85
2021/06/30 02:35:26;;;;;;;15.98;11.45;;;;;;;13.81;100.00;99817.88;1592745;88;21163;-88
2021/06/30 02:37:55;;;;;;;17.75;10.72;;;;;;;13.85;100.00;99820.75;1633354;86;21521;-86
2021/06/30 02:40:24;;;;;;;16.35;11.53;;;;;;;13.87;100.00;99813.55;1632891;87;21506;-88
2021/06/30 02:42:51;;;;;;;17.70;11.60;;;;;;;13.95;100.00;99820.61;1631504;87;21111;-88
2021/06/30 02:45:19;;;;;;;18.25;10.58;;;;;;;14.04;100.00;99818.77;1634496;87;21571;-86
2021/06/30 02:47:47;;;;;;;22.13;13.32;;;;;;;14.12;100.00;99822.77;1632665;87;21881;-87
2021/06/30 02:50:18;;;;;;;19.37;12.23;;;;;;;14.19;100.00;99824.13;1635627;87;21171;-86
2021/06/30 02:52:48;;;;;;;25.92;13.45;;;;;;;14.26;100.00;99824.16;1633856;87;21067;-85
2021/06/30 02:55:15;;;;;;;21.93;15.60;;;;;;;14.38;100.00;99826.13;1633029;87;21083;-87
2021/06/30 02:57:43;;;;;;;11.88;9.90;;;;;;;14.50;100.00;99829.02;1633644;87;21047;-91
2021/06/30 03:00:21;;;;;;;11.95;9.60;;;;;;;14.59;100.00;99831.16;1632199;86;21127;-84
2021/06/30 03:02:49;;;;;;;12.90;10.30;;;;;;;14.70;100.00;99832.71;1638198;86;21129;-85
2021/06/30 03:05:16;;;;;;;25.10;19.02;;;;;;;14.82;100.00;99839.93;1640144;87;21718;-89
2021/06/30 03:07:45;;;;;;;58.50;40.35;;;;;;;14.92;100.00;99828.77;1639351;87;21086;-87
2021/06/30 03:10:13;;;;;;;69.97;49.88;;;;;;;15.02;100.00;99825.49;1639474;87;21034;-90
2021/06/30 03:12:41;;;;;;;56.95;40.95;;;;;;;15.15;100.00;99815.45;1633987;86;21092;-84
2021/06/30 03:15:10;;;;;;;65.15;45.12;;;;;;;15.26;100.00;99819.63;1622455;86;22024;-84
2021/06/30 03:17:37;;;;;;;68.67;48.50;;;;;;;15.41;100.00;99824.45;1627109;88;21546;-83
2021/06/30 03:20:07;;;;;;;62.23;46.25;;;;;;;15.55;100.00;99827.09;1627193;88;21679;-85
2021/06/30 03:22:34;;;;;;;66.55;46.95;;;;;;;15.71;100.00;99826.57;1629375;87;21025;-86
2021/06/30 03:25:01;;;;;;;66.40;49.63;;;;;;;15.86;100.00;99831.85;1629876;87;21172;-84
2021/06/30 03:27:29;;;;;;;69.90;49.65;;;;;;;16.02;100.00;99831.24;1623233;86;21271;-86
2021/06/30 03:29:55;;;;;;;64.70;48.35;;;;;;;16.16;100.00;99829.02;1627217;87;21030;-86
2021/06/30 03:32:22;;;;;;;58.90;41.60;;;;;;;16.32;100.00;99824.89;1627396;88;21581;-85
2021/06/30 03:34:50;;;;;;;56.02;39.50;;;;;;;16.50;100.00;99826.33;1627729;86;21050;-83
2021/06/30 03:37:20;;;;;;;51.55;37.25;;;;;;;16.68;100.00;99824.71;1638918;86;21010;-85
2021/06/30 03:42:26;;;;;;;41.30;30.57;;;;;;;17.13;99.84;99829.23;1802125;79;23233;-85
2021/06/30 03:44:53;;;;;;;33.73;26.82;;;;;;;17.27;99.50;99826.45;1775755;77;20894;-84
2021/06/30 03:47:20;;;;;;;31.25;23.00;;;;;;;17.50;98.64;99830.66;1784424;77;21178;-84
2021/06/30 03:49:47;;;;;;;24.55;18.05;;;;;;;17.71;97.99;99836.27;1776783;79;20990;-85
2021/06/30 03:52:14;;;;;;;25.32;18.23;;;;;;;17.93;96.73;99828.96;1770011;79;21076;-85
2021/06/30 03:54:42;;;;;;;23.07;17.75;;;;;;;18.15;95.61;99830.44;1780461;80;21104;-84
2021/06/30 03:57:09;;;;;;;17.98;14.35;;;;;;;18.37;94.52;99834.17;1788038;80;21128;-86
2021/06/30 03:59:36;;;;;;;18.87;14.28;;;;;;;18.59;92.90;99835.61;1787877;80;21079;-85
2021/06/30 04:02:03;;;;;;;17.42;13.03;;;;;;;18.80;91.23;99826.98;1787549;80;22214;-86
2021/06/30 04:04:30;;;;;;;14.68;11.68;;;;;;;19.04;90.25;99823.75;1754145;80;21125;-87
2021/06/30 04:06:59;;;;;;;17.02;11.53;;;;;;;19.28;88.53;99822.84;1764593;80;21032;-83
2021/06/30 04:09:26;;;;;;;14.23;10.80;;;;;;;19.52;86.48;99820.54;1788342;80;21064;-87
2021/06/30 04:11:53;;;;;;;13.48;9.78;;;;;;;19.75;85.23;99824.92;1787885;80;21514;-82
2021/06/30 04:14:19;;;;;;;14.78;9.35;;;;;;;20.01;84.18;99824.64;1778637;80;21061;-84
2021/06/30 04:16:47;;;;;;;15.45;11.12;;;;;;;20.28;82.72;99826.39;1781085;80;21077;-85
2021/06/30 04:19:14;;;;;;;12.23;9.23;;;;;;;20.54;81.62;99830.94;1714130;83;22086;-83
2021/06/30 04:21:41;;;;;;;11.20;8.15;;;;;;;20.81;80.03;99827.43;1715536;83;21137;-81
2021/06/30 04:24:08;;;;;;;13.90;7.10;;;;;;;21.06;78.40;99831.05;1697582;83;21100;-83
2021/06/30 04:26:36;;;;;;;7.58;6.72;;;;;;;21.31;77.16;99832.97;1686787;85;21085;-85
2021/06/30 04:29:04;;;;;;;10.85;7.08;;;;;;;21.60;75.84;99834.45;1687233;84;21089;-82
2021/06/30 04:31:31;;;;;;;8.75;5.00;;;;;;;21.88;73.51;99824.84;1702925;83;21085;-85
2021/06/30 04:33:58;;;;;;;7.00;5.28;;;;;;;22.12;70.09;99827.14;1687514;84;21108;-82
2021/06/30 04:36:25;;;;;;;8.35;6.25;;;;;;;22.35;67.62;99819.72;1702752;84;21100;-83
2021/06/30 04:38:52;;;;;;;6.75;5.25;;;;;;;22.57;65.85;99825.83;1702434;82;21133;-85
2021/06/30 04:41:19;;;;;;;8.20;5.30;;;;;;;22.75;65.34;99824.13;1691796;84;21035;-83
2021/06/30 04:43:46;;;;;;;6.62;5.20;;;;;;;22.98;64.33;99831.84;1687157;85;21028;-79
2021/06/30 04:46:12;;;;;;;8.15;4.78;;;;;;;23.20;62.83;99824.84;1687207;85;21149;-82
2021/06/30 04:48:40;;;;;;;7.28;4.47;;;;;;;23.41;62.74;99823.78;1683894;84;21170;-86
2021/06/30 04:51:07;;;;;;;9.13;4.33;;;;;;;23.65;61.04;99822.78;1685734;85;21582;-77
2021/06/30 04:53:34;;;;;;;5.67;3.20;;;;;;;23.92;59.37;99827.83;1741784;82;20998;-76
2021/06/30 04:56:01;;;;;;;7.95;3.98;;;;;;;24.13;55.82;99822.67;1742525;82;21139;-81
2021/06/30 04:58:29;;;;;;;7.47;4.83;;;;;;;24.31;55.38;99817.32;1741260;82;21133;-79
2021/06/30 05:00:56;;;;;;;3.50;3.10;;;;;;;24.57;55.87;99816.08;1738792;82;21119;-80
2021/06/30 05:03:27;;;;;;;3.65;3.17;;;;;;;24.79;52.51;99804.83;1737530;82;21041;-81
2021/06/30 05:05:54;;;;;;;5.75;3.60;;;;;;;24.99;52.33;99802.80;1744955;80;21057;-81
2021/06/30 05:08:22;;;;;;;3.42;3.10;;;;;;;25.14;52.24;99804.39;1739745;80;21099;-81
2021/06/30 05:10:52;;;;;;;4.53;3.08;;;;;;;25.30;50.22;99806.38;1737755;82;21573;-80
2021/06/30 05:13:19;;;;;;;3.98;2.80;;;;;;;25.45;50.36;99805.30;1740941;82;22103;-80
2021/06/30 05:15:46;;;;;;;3.58;2.30;;;;;;;25.64;49.52;99796.95;1741384;82;21053;-81
2021/06/30 05:18:13;;;;;;;7.80;3.27;;;;;;;25.84;49.34;99802.09;1735051;82;22002;-81
2021/06/30 05:20:41;;;;;;;3.83;2.42;;;;;;;26.10;48.71;99805.56;1741841;82;21064;-80
2021/06/30 05:23:08;;;;;;;4.17;2.72;;;;;;;26.28;48.20;99803.25;1742467;80;21053;-79
2021/06/30 05:25:35;;;;;;;6.25;2.55;;;;;;;26.51;46.37;99803.44;1742239;82;21061;-81
2021/06/30 05:28:02;;;;;;;6.25;2.87;;;;;;;26.65;44.87;99800.61;1741215;82;21034;-82
2021/06/30 05:30:29;;;;;;;5.28;2.50;;;;;;;26.71;44.51;99803.48;1731885;81;21042;-74
2021/06/30 05:32:56;;;;;;;3.70;2.25;;;;;;;26.80;43.82;99815.11;1744930;82;21049;-74
2021/06/30 05:35:23;;;;;;;2.22;2.00;;;;;;;26.94;43.61;99809.52;1740911;82;21119;-74
2021/06/30 05:37:51;;;;;;;2.75;2.27;;;;;;;27.20;42.91;99807.50;1717934;82;21099;-76
2021/06/30 05:40:18;;;;;;;3.08;2.33;;;;;;;27.47;41.62;99801.84;1737306;82;21053;-75
2021/06/30 05:42:45;;;;;;;2.45;2.25;;;;;;;27.62;41.77;99793.34;1722560;81;21018;-74
2021/06/30 05:45:16;;;;;;;6.70;2.98;;;;;;;27.76;40.11;99798.01;1726250;82;21045;-74
2021/06/30 05:47:43;;;;;;;6.12;2.17;;;;;;;27.85;41.10;99800.72;1705487;83;21595;-75
2021/06/30 05:50:12;;;;;;;3.45;2.85;;;;;;;27.99;40.75;99808.08;1705477;83;21107;-74
2021/06/30 05:52:39;;;;;;;2.40;2.00;;;;;;;28.12;40.25;99801.58;1688485;83;21064;-75
2021/06/30 05:55:07;;;;;;;4.65;2.33;;;;;;;28.20;39.71;99804.22;1655384;85;21065;-75
2021/06/30 05:57:35;;;;;;;3.17;2.20;;;;;;;28.36;39.41;99806.50;1737874;81;21616;-75
2021/06/30 06:00:10;;;;;;;2.65;1.95;;;;;;;28.56;39.68;99815.86;1694324;84;21073;-75
2021/06/30 06:02:37;;;;;;;3.85;2.02;;;;;;;28.79;38.31;99818.55;1687594;84;21812;-77
2021/06/30 06:05:05;;;;;;;2.27;1.60;;;;;;;28.93;36.82;99812.84;1667200;85;21101;-75
2021/06/30 06:07:32;;;;;;;2.15;1.70;;;;;;;29.12;36.98;99809.30;1692620;84;21170;-74
2021/06/30 06:09:59;;;;;;;2.37;1.77;;;;;;;29.36;36.60;99803.63;1665432;85;21033;-74
2021/06/30 06:12:27;;;;;;;9.10;1.87;;;;;;;29.54;35.47;99796.97;1700258;84;21572;-75
2021/06/30 06:14:54;;;;;;;2.10;1.80;;;;;;;29.64;35.59;99801.61;1690668;84;21159;-75
2021/06/30 06:17:21;;;;;;;13.90;2.80;;;;;;;29.73;35.44;99805.94;1698657;84;21148;-75
2021/06/30 06:19:48;;;;;;;4.65;1.45;;;;;;;29.89;35.13;99807.08;1693289;83;21121;-75
2021/06/30 06:22:15;;;;;;;5.17;1.87;;;;;;;30.05;33.43;99807.89;1721705;83;21052;-76
2021/06/30 06:24:42;;;;;;;2.30;1.65;;;;;;;30.03;33.80;99811.31;1681047;83;21686;-74
2021/06/30 06:27:09;;;;;;;2.65;1.90;;;;;;;30.05;33.58;99805.18;1667510;85;21185;-75
2021/06/30 06:29:35;;;;;;;5.40;1.70;;;;;;;30.06;32.83;99809.56;1692074;84;21054;-76
2021/06/30 06:32:03;;;;;;;2.17;1.92;;;;;;;30.14;33.44;99814.89;1670513;85;21099;-74
2021/06/30 06:34:30;;;;;;;4.17;2.10;;;;;;;30.26;31.93;99810.66;1697620;83;21081;-78
2021/06/30 06:36:59;;;;;;;3.15;2.00;;;;;;;30.27;32.48;99810.97;1684860;83;21144;-78
2021/06/30 06:39:26;;;;;;;3.63;1.70;;;;;;;30.26;32.94;99810.66;1673758;84;21975;-78
2021/06/30 06:41:55;;;;;;;7.33;1.90;;;;;;;30.35;32.96;99814.10;1687125;84;21212;-81
2021/06/30 06:44:22;;;;;;;2.25;2.05;;;;;;;30.47;32.80;99805.75;1738995;82;21603;-81
2021/06/30 06:46:50;;;;;;;3.33;1.82;;;;;;;30.55;32.86;99806.65;1746500;82;21029;-80
2021/06/30 06:49:18;;;;;;;3.90;2.10;;;;;;;30.62;32.47;99805.70;1744564;82;21610;-81
2021/06/30 06:51:45;;;;;;;2.65;2.02;;;;;;;30.87;31.67;99802.57;1749099;82;21134;-80
2021/06/30 06:54:12;;;;;;;3.50;1.80;;;;;;;31.13;31.04;99806.86;1747598;82;21030;-78
2021/06/30 06:56:39;;;;;;;4.70;1.90;;;;;;;31.27;30.52;99798.27;1746016;82;21076;-81
2021/06/30 06:59:05;;;;;;;7.87;1.67;;;;;;;31.30;31.77;99798.39;1708809;83;21050;-80
2021/06/30 07:01:33;;;;;;;1.75;1.40;;;;;;;31.47;30.33;99794.34;1746621;81;21076;-82
2021/06/30 07:04:00;;;;;;;1.92;1.52;;;;;;;31.73;28.89;99785.46;1746658;82;21888;-79
2021/06/30 07:06:27;;;;;;;4.17;1.57;;;;;;;31.81;29.29;99784.44;1746079;82;21113;-78
2021/06/30 07:08:56;;;;;;;1.85;1.47;;;;;;;31.92;29.47;99781.13;1746469;82;21050;-77
2021/06/30 07:11:23;;;;;;;3.37;1.47;;;;;;;32.17;28.62;99783.33;1700372;83;21511;-78
2021/06/30 07:13:51;;;;;;;4.72;1.30;;;;;;;32.28;28.84;99778.64;1747751;82;21139;-79
2021/06/30 07:16:19;;;;;;;3.37;1.87;;;;;;;32.42;28.80;99780.00;1747076;82;21134;-79
2021/06/30 07:18:46;;;;;;;3.08;1.92;;;;;;;32.34;28.92;99782.41;1747824;82;21083;-80
2021/06/30 07:21:13;;;;;;;3.08;1.70;;;;;;;32.26;28.90;99776.64;1747435;82;21074;-80
2021/06/30 07:23:39;;;;;;;5.42;2.00;;;;;;;32.13;28.54;99780.70;1747906;82;21098;-77
2021/06/30 07:26:11;;;;;;;5.12;1.52;;;;;;;31.98;28.85;99784.44;1722759;82;21659;-82
2021/06/30 07:28:39;;;;;;;3.47;1.52;;;;;;;31.82;28.82;99783.41;1747917;82;21127;-80
2021/06/30 07:31:07;;;;;;;2.62;1.67;;;;;;;31.88;28.50;99788.02;1747807;82;21110;-81
2021/06/30 07:33:37;;;;;;;4.58;1.80;;;;;;;31.90;28.69;99787.83;1748977;82;20998;-81
2021/06/30 07:36:04;;;;;;;2.95;1.22;;;;;;;31.98;27.43;99778.98;1747628;82;21132;-82
2021/06/30 07:38:31;;;;;;;2.47;1.37;;;;;;;32.28;27.10;99784.09;1745342;82;21049;-81
2021/06/30 07:40:58;;;;;;;6.28;1.95;;;;;;;32.56;25.71;99784.47;1709434;83;21465;-82
2021/06/30 07:43:26;;;;;;;3.98;1.30;;;;;;;32.60;25.94;99781.62;1733983;81;21046;-81
2021/06/30 07:45:53;;;;;;;3.65;1.30;;;;;;;32.32;25.30;99777.16;1669656;85;21053;-80
2021/06/30 07:48:21;;;;;;;2.17;1.20;;;;;;;32.15;25.72;99784.05;1722598;82;21646;-80
2021/06/30 07:50:49;;;;;;;5.35;1.42;;;;;;;32.08;25.94;99780.48;1723986;82;21622;-81
2021/06/30 07:53:16;;;;;;;2.33;1.30;;;;;;;32.12;25.77;99777.67;1729906;82;21103;-77
2021/06/30 07:55:43;;;;;;;1.80;1.40;;;;;;;32.10;25.94;99775.67;1735589;82;21006;-80
2021/06/30 07:58:11;;;;;;;1.30;1.17;;;;;;;32.23;25.40;99781.13;1722982;82;21108;-81
2021/06/30 08:00:38;;;;;;;3.15;1.10;;;;;;;32.30;25.24;99776.55;1722446;82;21440;-80
2021/06/30 08:03:05;;;;;;;4.00;1.25;;;;;;;32.35;25.89;99768.59;1723456;82;21088;-81
2021/06/30 08:05:34;;;;;;;4.17;1.20;;;;;;;32.37;25.75;99773.31;1732404;82;20999;-80
2021/06/30 08:08:01;;;;;;;6.12;1.40;;;;;;;32.30;25.20;99778.41;1687162;85;21648;-80
2021/06/30 08:10:30;;;;;;;7.58;1.50;;;;;;;32.48;25.08;99780.01;1718630;82;21056;-78
2021/06/30 08:12:57;;;;;;;2.12;1.30;;;;;;;32.86;25.65;99775.34;1686791;85;21097;-81
2021/06/30 08:15:24;;;;;;;2.42;1.15;;;;;;;33.33;24.66;99773.92;1729116;82;21049;-80
2021/06/30 08:17:52;;;;;;;1.67;1.25;;;;;;;33.66;23.99;99760.71;1687379;84;21068;-78
2021/06/30 08:20:19;;;;;;;1.15;1.00;;;;;;;33.82;23.38;99767.90;1728278;82;21046;-80
2021/06/30 08:22:46;;;;;;;1.98;1.47;;;;;;;33.77;23.42;99769.59;1727771;82;21060;-77
2021/06/30 08:25:13;;;;;;;1.82;1.10;;;;;;;33.84;23.49;99771.76;1726624;83;21097;-81
2021/06/30 08:27:39;;;;;;;3.70;1.02;;;;;;;34.18;22.67;99775.19;1725937;83;21072;-77
2021/06/30 08:30:09;;;;;;;2.33;0.82;;;;;;;34.46;22.17;99777.00;1723728;82;21968;-80
2021/06/30 08:32:37;;;;;;;2.02;0.90;;;;;;;34.75;20.78;99776.05;1685766;83;28213;-78
2021/06/30 08:35:05;;;;;;;2.00;0.85;;;;;;;34.81;20.75;99779.27;1726603;82;21056;-77
2021/06/30 08:37:39;;;;;;;2.25;0.90;;;;;;;34.89;20.63;99781.70;1729496;82;21034;-76
2021/06/30 08:40:02;;;;;;;1.17;0.88;;;;;;;34.93;21.19;99777.17;1727769;82;21029;-76
2021/06/30 08:42:28;;;;;;;1.70;1.05;;;;;;;35.03;21.21;99772.84;1732639;82;21473;-77
2021/06/30 08:44:56;;;;;;;4.33;1.10;;;;;;;34.86;20.03;99769.86;1749357;81;21056;-77
2021/06/30 08:47:23;;;;;;;1.72;0.85;;;;;;;34.60;21.09;99778.24;1750043;81;21097;-77
2021/06/30 08:49:50;;;;;;;4.03;1.50;;;;;;;34.38;20.90;99768.23;1718644;82;21662;-78
2021/06/30 08:52:18;;;;;;;1.00;0.78;;;;;;;34.41;21.30;99776.80;1709014;83;21117;-79
2021/06/30 08:54:44;;;;;;;3.87;0.95;;;;;;;34.52;21.13;99774.44;1742168;81;22134;-78
2021/06/30 08:57:11;;;;;;;1.22;0.90;;;;;;;34.67;21.82;99774.45;1701769;83;21062;-78
2021/06/30 08:59:38;;;;;;;1.45;1.10;;;;;;;34.95;20.98;99772.28;1749674;81;21579;-90
2021/06/30 09:02:06;;;;;;;2.25;1.20;;;;;;;35.08;20.29;99768.05;1752122;81;21053;-84
2021/06/30 09:04:40;;;;;;;3.72;1.17;;;;;;;34.76;21.06;99776.34;1750808;81;21621;-83
2021/06/30 09:07:04;;;;;;;2.87;0.98;;;;;;;34.56;21.34;99765.56;1751283;81;21298;-82
2021/06/30 09:09:40;;;;;;;2.05;1.00;;;;;;;34.65;21.41;99771.63;1741393;81;21065;-78
2021/06/30 09:12:07;;;;;;;6.00;0.95;;;;;;;34.95;21.07;99770.92;1749809;81;21064;-79
2021/06/30 09:14:40;;;;;;;10.38;1.92;;;;;;;35.28;19.87;99767.34;1751102;81;21009;-80
2021/06/30 09:17:19;;;;;;;4.62;1.10;;;;;;;35.44;20.29;99760.44;1745048;82;21049;-78
2021/06/30 09:19:57;;;;;;;5.97;1.12;;;;;;;35.40;19.69;99755.64;1735587;82;21108;-81
2021/06/30 09:22:26;;;;;;;1.95;1.00;;;;;;;35.50;20.12;99755.96;1750659;80;21093;-81
2021/06/30 09:24:56;;;;;;;5.40;1.52;;;;;;;35.55;21.05;99753.36;1750748;81;21061;-78
2021/06/30 09:27:43;;;;;;;4.62;1.50;;;;;;;35.84;20.00;99755.01;1751007;81;21136;-80
2021/06/30 09:30:12;;;;;;;4.87;1.10;;;;;;;36.00;19.61;99753.53;1742634;81;21010;-80
2021/06/30 09:33:02;;;;;;;3.40;1.07;;;;;;;35.77;19.37;99750.16;1750839;81;21579;-80
2021/06/30 09:35:36;;;;;;;2.72;1.02;;;;;;;35.52;19.76;99759.27;1735607;81;21041;-80
2021/06/30 09:38:29;;;;;;;2.40;0.98;;;;;;;35.44;19.95;99749.48;1751474;81;21587;-78
2021/06/30 09:40:56;;;;;;;2.70;1.00;;;;;;;34.98;19.78;99751.34;1748485;81;21525;-80
2021/06/30 09:43:28;;;;;;;0.98;0.85;;;;;;;34.33;21.37;99741.56;1737649;82;21078;-77
2021/06/30 09:45:57;;;;;;;1.87;1.05;;;;;;;34.17;20.53;99731.17;1748337;82;21127;-79
2021/06/30 09:48:30;;;;;;;6.58;1.20;;;;;;;34.21;20.77;99729.14;1746200;82;21050;-77
2021/06/30 09:51:00;;;;;;;12.00;1.67;;;;;;;34.31;21.02;99727.28;1742325;82;21025;-80
2021/06/30 09:53:33;;;;;;;5.10;1.32;;;;;;;34.46;20.79;99729.16;1708660;83;21105;-77
2021/06/30 09:56:34;;;;;;;14.03;3.40;;;;;;;34.59;20.63;99733.66;1678655;85;21113;-80
2021/06/30 09:59:16;;;;;;;2.87;1.15;;;;;;;34.57;20.86;99730.84;1746857;82;21148;-77
2021/06/30 10:01:59;;;;;;;26.50;2.00;;;;;;;34.48;21.93;99727.02;1740456;82;21120;-78
2021/06/30 10:04:38;;;;;;;3.58;1.57;;;;;;;34.26;22.51;99728.48;1707518;83;21129;-77
2021/06/30 10:07:12;;;;;;;10.40;2.70;;;;;;;34.25;22.16;99719.95;1669558;85;21128;-83
2021/06/30 10:09:52;;;;;;;7.42;2.52;;;;;;;34.12;21.85;99722.77;1749059;82;21013;-82
2021/06/30 10:12:23;;;;;;;5.93;2.07;;;;;;;33.68;22.12;99721.75;1748972;82;21523;-84
2021/06/30 10:14:55;;;;;;;4.78;1.92;;;;;;;33.33;24.38;99716.62;1723353;82;21112;-81
2021/06/30 10:17:23;;;;;;;46.75;5.17;;;;;;;32.91;26.12;99719.63;1747321;82;21101;-81
2021/06/30 10:19:52;;;;;;;64.50;7.67;;;;;;;32.46;27.20;99718.59;1746169;82;21048;-79
2021/06/30 10:22:19;;;;;;;12.55;2.80;;;;;;;32.30;27.19;99720.70;1747419;81;21588;-80
2021/06/30 10:24:46;;;;;;;3.47;2.05;;;;;;;32.39;25.85;99717.22;1708337;83;21143;-79
2021/06/30 10:27:14;;;;;;;5.70;2.10;;;;;;;32.86;25.17;99710.43;1748970;81;21101;-80
2021/06/30 10:29:53;;;;;;;2.75;1.65;;;;;;;33.17;25.17;99713.30;1709259;83;21081;-80
2021/06/30 10:32:21;;;;;;;4.78;2.50;;;;;;;33.41;25.18;99706.30;1748638;81;21705;-80
2021/06/30 10:34:54;;;;;;;14.58;2.98;;;;;;;33.46;23.72;99703.45;1711136;83;21077;-80
2021/06/30 10:37:29;;;;;;;15.95;2.80;;;;;;;33.56;24.31;99710.11;1749285;82;21122;-80
2021/06/30 10:40:00;;;;;;;109.75;12.45;;;;;;;33.85;24.63;99709.27;1749142;82;21143;-82
2021/06/30 10:42:38;;;;;;;6.35;2.42;;;;;;;33.84;24.14;99706.21;1748560;82;22104;-77
2021/06/30 10:45:26;;;;;;;9.35;2.40;;;;;;;33.87;23.73;99705.80;1743790;82;21042;-77
2021/06/30 10:48:08;;;;;;;15.05;2.15;;;;;;;33.75;24.00;99711.63;1691119;83;21047;-78
2021/06/30 10:50:46;;;;;;;9.38;2.40;;;;;;;33.68;23.77;99704.00;1739560;82;21660;-79
2021/06/30 10:53:30;;;;;;;5.65;2.85;;;;;;;33.71;23.93;99702.22;1745634;81;21077;-78
2021/06/30 10:56:02;;;;;;;4.20;2.55;;;;;;;33.62;24.88;99705.19;1743665;82;21101;-80
2021/06/30 10:58:30;;;;;;;5.03;2.60;;;;;;;33.39;25.04;99688.47;1742124;82;21556;-78
2021/06/30 11:01:04;;;;;;;12.63;2.60;;;;;;;33.32;24.94;99693.12;1719833;82;21049;-78
2021/06/30 11:03:46;;;;;;;4.58;2.72;;;;;;;33.46;25.20;99691.17;1737621;82;21091;-79
2021/06/30 11:06:30;;;;;;;5.83;2.65;;;;;;;33.55;24.99;99685.24;1699229;84;21489;-79
2021/06/30 11:09:06;;;;;;;6.78;3.17;;;;;;;33.75;25.25;99687.05;1733663;82;21085;-78
2021/06/30 11:11:39;;;;;;;9.28;2.92;;;;;;;33.61;25.78;99683.05;1731443;81;21042;-78
2021/06/30 11:14:17;;;;;;;4.45;2.90;;;;;;;33.29;26.26;99680.75;1745144;82;21077;-80
2021/06/30 11:16:52;;;;;;;20.10;3.42;;;;;;;33.10;26.02;99668.84;1745031;82;21543;-79
2021/06/30 11:19:31;;;;;;;6.00;3.12;;;;;;;33.10;26.02;99668.84;1735849;82;21107;-79
2021/06/30 11:22:05;;;;;;;4.45;2.10;;;;;;;33.17;25.08;99666.09;1740075;82;21156;-79
2021/06/30 11:24:49;;;;;;;9.65;3.00;;;;;;;32.85;25.50;99659.12;1738644;82;21081;-80
2021/06/30 11:27:34;;;;;;;3.95;2.60;;;;;;;32.58;26.93;99654.27;1736993;82;21057;-78
2021/06/30 11:30:03;;;;;;;8.43;2.83;;;;;;;32.40;27.03;99650.26;1738873;82;21298;-78
2021/06/30 11:32:38;;;;;;;15.43;3.62;;;;;;;32.50;27.67;99654.44;1741991;82;21062;-78
2021/06/30 11:35:19;;;;;;;3.83;2.62;;;;;;;32.55;28.47;99650.05;1743099;82;21124;-81
2021/06/30 11:38:02;;;;;;;12.25;3.27;;;;;;;32.33;28.14;99649.43;1746201;82;21125;-80